Time;durP1;ratioP1;P1;durP2;ratioP2;P2;SDS_P1;SDS_P2;PMS_P1;PMS_P2;Temp;Humidity;BMP_temperature;BMP_pressure;BME280_temperature;BME280_humidity;BME280_pressure;Samples;Min_cycle;Max_cycle;Signal;HPM_P1;HPM_P2
2021/04/15 00:00:42;;;;;;;9.55;5.80;;;2.80;99.90;;;;;;4978515;28;20042;-87
2021/04/15 00:03:10;;;;;;;13.03;7.30;;;2.80;99.90;;;;;;4979584;28;20116;-87
2021/04/15 00:05:37;;;;;;;13.40;7.23;;;2.70;99.90;;;;;;4978877;28;20042;-86
2021/04/15 00:08:06;;;;;;;12.83;6.70;;;2.90;99.90;;;;;;4979738;28;20023;-87
2021/04/15 00:10:35;;;;;;;12.10;6.57;;;2.60;99.90;;;;;;4976627;28;20035;-87
2021/04/15 00:13:03;;;;;;;12.17;7.00;;;2.90;99.90;;;;;;4960558;28;20027;-87
2021/04/15 00:15:29;;;;;;;9.40;5.63;;;2.70;99.90;;;;;;4960654;28;20037;-88
2021/04/15 00:17:55;;;;;;;10.43;5.80;;;2.60;99.90;;;;;;4979558;28;20026;-87
2021/04/15 00:20:21;;;;;;;11.00;6.17;;;2.80;99.90;;;;;;4979369;28;20041;-87
2021/04/15 00:22:47;;;;;;;11.97;6.50;;;2.70;99.90;;;;;;4979594;28;20403;-87
2021/04/15 00:25:13;;;;;;;10.13;5.97;;;2.60;99.90;;;;;;4979148;28;20040;-87
2021/04/15 00:27:39;;;;;;;12.73;6.77;;;2.40;99.90;;;;;;4979583;28;20030;-87
2021/04/15 00:30:07;;;;;;;12.13;6.90;;;2.30;99.90;;;;;;4980406;28;20117;-87
2021/04/15 00:32:33;;;;;;;14.20;7.27;;;2.30;99.90;;;;;;4994611;23;20026;-85
2021/04/15 00:34:58;;;;;;;11.10;6.63;;;2.30;99.90;;;;;;5013778;28;20052;-86
2021/04/15 00:37:24;;;;;;;13.93;6.93;;;2.20;99.90;;;;;;4996918;28;20501;-84
2021/04/15 00:39:49;;;;;;;12.17;7.07;;;2.20;99.90;;;;;;4996582;28;20022;-84
2021/04/15 00:42:15;;;;;;;11.43;7.17;;;2.20;99.90;;;;;;5013609;28;20117;-85
2021/04/15 00:44:41;;;;;;;11.93;7.10;;;2.20;99.90;;;;;;4978490;28;20088;-84
2021/04/15 00:47:21;;;;;;;14.50;8.47;;;2.20;99.90;;;;;;4996309;28;20109;-85
2021/04/15 00:50:01;;;;;;;12.87;7.90;;;2.20;99.90;;;;;;4978149;28;20031;-85
2021/04/15 00:52:32;;;;;;;11.67;7.30;;;2.20;99.90;;;;;;4992467;28;20107;-86
2021/04/15 00:55:05;;;;;;;14.98;8.10;;;2.20;99.90;;;;;;4998023;28;20029;-85
2021/04/15 00:57:37;;;;;;;13.07;8.15;;;2.10;99.90;;;;;;4998273;28;20449;-86
2021/04/15 01:00:10;;;;;;;15.53;7.87;;;2.10;99.90;;;;;;4997666;28;20033;-85
2021/04/15 01:02:37;;;;;;;12.23;7.80;;;2.10;99.90;;;;;;4996716;28;20387;-86
2021/04/15 01:05:14;;;;;;;11.57;6.77;;;2.10;99.90;;;;;;4996414;28;20121;-85
2021/04/15 01:07:40;;;;;;;14.37;7.73;;;2.10;99.90;;;;;;5015532;28;20049;-85
2021/04/15 01:10:07;;;;;;;13.00;7.40;;;2.10;99.90;;;;;;5000477;28;20458;-85
2021/04/15 01:12:32;;;;;;;15.47;8.63;;;2.00;99.90;;;;;;5000515;28;20026;-85
2021/04/15 01:15:14;;;;;;;13.87;7.67;;;2.00;99.90;;;;;;5000655;28;20033;-84
2021/04/15 01:18:02;;;;;;;10.90;7.23;;;2.00;99.90;;;;;;5000834;28;20104;-85
2021/04/15 01:20:59;;;;;;;14.40;7.23;;;2.00;99.90;;;;;;5000277;28;20082;-85
2021/04/15 01:23:46;;;;;;;13.17;7.47;;;2.00;99.90;;;;;;4999858;28;20033;-85
2021/04/15 01:26:36;;;;;;;11.30;7.07;;;2.00;99.90;;;;;;5000547;28;20040;-84
2021/04/15 01:29:46;;;;;;;14.93;7.63;;;2.00;99.90;;;;;;5000208;28;20441;-85
2021/04/15 01:32:24;;;;;;;15.30;8.80;;;2.00;99.90;;;;;;4953882;28;20128;-86
2021/04/15 01:35:09;;;;;;;14.90;8.87;;;1.90;99.90;;;;;;4998220;28;20034;-85
2021/04/15 01:37:44;;;;;;;15.57;8.53;;;1.80;99.90;;;;;;4998175;28;20030;-85
2021/04/15 01:40:26;;;;;;;15.03;9.20;;;1.80;99.90;;;;;;5002988;28;20065;-86
2021/04/15 01:43:24;;;;;;;15.07;9.25;;;1.80;99.90;;;;;;5017287;28;20092;-85
2021/04/15 01:45:53;;;;;;;14.80;8.83;;;1.70;99.90;;;;;;4960252;28;20041;-85
2021/04/15 01:48:27;;;;;;;17.60;9.37;;;1.80;99.90;;;;;;5018118;28;20057;-85
2021/04/15 01:51:07;;;;;;;15.30;8.73;;;1.80;99.90;;;;;;5017735;28;20085;-85
2021/04/15 01:53:44;;;;;;;15.47;9.30;;;1.80;99.90;;;;;;5017206;28;20050;-84
2021/04/15 01:56:24;;;;;;;16.57;9.40;;;1.80;99.90;;;;;;5016129;28;20022;-85
2021/04/15 01:59:11;;;;;;;16.80;9.17;;;1.80;99.90;;;;;;4994904;28;20492;-85
2021/04/15 02:01:45;;;;;;;18.97;9.90;;;1.70;99.90;;;;;;4997235;28;20026;-85
2021/04/15 02:04:16;;;;;;;16.40;9.77;;;1.70;99.90;;;;;;4997304;28;20026;-84
2021/04/15 02:06:47;;;;;;;15.10;9.87;;;1.70;99.90;;;;;;4999189;28;20084;-85
2021/04/15 02:09:15;;;;;;;16.77;10.03;;;1.60;99.90;;;;;;4999420;28;20025;-86
2021/04/15 02:11:59;;;;;;;16.70;10.13;;;1.60;99.90;;;;;;4999159;28;20029;-85
2021/04/15 02:14:29;;;;;;;15.67;9.97;;;1.50;99.90;;;;;;5017445;28;20053;-85
2021/04/15 02:16:57;;;;;;;17.97;10.13;;;1.50;99.90;;;;;;4999270;28;20018;-85
2021/04/15 02:19:31;;;;;;;15.43;9.77;;;1.60;99.90;;;;;;5016881;28;20105;-86
2021/04/15 02:22:17;;;;;;;14.77;9.67;;;1.60;99.90;;;;;;4998791;28;20089;-85
2021/04/15 02:25:02;;;;;;;17.53;10.47;;;1.60;99.90;;;;;;4976026;28;20092;-85
2021/04/15 02:27:38;;;;;;;16.57;9.57;;;1.60;99.90;;;;;;4997905;28;20382;-84
2021/04/15 02:30:14;;;;;;;17.00;9.60;;;1.50;99.90;;;;;;4997859;28;20026;-84
2021/04/15 02:32:58;;;;;;;14.97;8.50;;;1.50;99.90;;;;;;4997569;28;20046;-85
2021/04/15 02:35:29;;;;;;;14.73;9.47;;;1.50;99.90;;;;;;4999198;28;20030;-85
2021/04/15 02:37:58;;;;;;;15.93;10.10;;;1.50;99.90;;;;;;5016009;28;20424;-84
2021/04/15 02:40:31;;;;;;;18.10;10.30;;;1.50;99.90;;;;;;5014611;28;20026;-85
2021/04/15 02:43:02;;;;;;;16.33;9.67;;;1.50;99.90;;;;;;4998561;28;20036;-84
2021/04/15 02:45:35;;;;;;;17.27;11.00;;;1.50;99.90;;;;;;4999227;28;20037;-85
2021/04/15 02:48:13;;;;;;;18.13;10.27;;;1.50;99.90;;;;;;4998914;28;20030;-85
2021/04/15 02:50:39;;;;;;;15.63;10.17;;;1.40;99.90;;;;;;5016085;28;20034;-86
2021/04/15 02:53:17;;;;;;;19.63;10.33;;;1.40;99.90;;;;;;5015397;28;20058;-85
2021/04/15 02:55:55;;;;;;;17.73;10.33;;;1.30;99.90;;;;;;4998390;28;20030;-85
2021/04/15 02:58:35;;;;;;;17.53;10.67;;;1.30;99.90;;;;;;4991582;28;20667;-85
2021/04/15 03:01:03;;;;;;;15.83;10.00;;;1.30;99.90;;;;;;4996750;28;20030;-85
2021/04/15 03:03:35;;;;;;;16.67;10.23;;;1.30;99.90;;;;;;4997945;28;20030;-85
2021/04/15 03:06:12;;;;;;;13.10;7.80;;;1.30;99.90;;;;;;4997946;28;20545;-85
2021/04/15 03:08:40;;;;;;;14.40;9.47;;;1.30;99.90;;;;;;4998575;28;20034;-85
2021/04/15 03:11:18;;;;;;;17.83;9.40;;;1.20;99.90;;;;;;4997979;28;20026;-85
2021/04/15 03:13:49;;;;;;;13.63;9.00;;;1.20;99.90;;;;;;4997975;28;20025;-85
2021/04/15 03:16:17;;;;;;;17.13;8.97;;;1.20;99.90;;;;;;4998085;28;20041;-85
2021/04/15 03:19:10;;;;;;;16.00;9.27;;;1.30;99.90;;;;;;5015686;28;20081;-85
2021/04/15 03:21:58;;;;;;;17.85;8.57;;;1.20;99.90;;;;;;5014747;28;20046;-84
2021/04/15 03:24:42;;;;;;;14.07;8.33;;;1.20;99.90;;;;;;4997974;28;20026;-86
2021/04/15 03:27:10;;;;;;;16.83;8.37;;;1.20;99.90;;;;;;5015732;28;20048;-85
2021/04/15 03:30:05;;;;;;;14.43;8.20;;;1.20;99.90;;;;;;4996721;28;20038;-85
2021/04/15 03:32:41;;;;;;;13.17;7.40;;;1.20;99.90;;;;;;5005738;28;20101;-84
2021/04/15 03:35:40;;;;;;;16.53;8.50;;;1.20;99.90;;;;;;4996910;28;20092;-85
2021/04/15 03:38:12;;;;;;;12.83;7.73;;;1.20;99.90;;;;;;4997191;28;20056;-85
2021/04/15 03:40:43;;;;;;;14.50;8.85;;;1.20;99.90;;;;;;5015295;28;20081;-85
2021/04/15 03:43:14;;;;;;;17.10;8.40;;;1.10;99.90;;;;;;5015985;28;20021;-85
2021/04/15 03:45:44;;;;;;;15.67;8.57;;;1.10;99.90;;;;;;4997402;28;20058;-85
2021/04/15 03:48:16;;;;;;;13.33;7.63;;;1.10;99.90;;;;;;5015231;28;20080;-85
2021/04/15 03:50:54;;;;;;;10.83;7.20;;;1.10;99.90;;;;;;4997360;28;20393;-85
2021/04/15 03:53:27;;;;;;;15.60;8.20;;;1.10;99.90;;;;;;5014985;28;20030;-85
2021/04/15 03:55:59;;;;;;;12.73;7.37;;;1.00;99.90;;;;;;4997950;28;20544;-85
2021/04/15 03:58:44;;;;;;;9.88;5.85;;;1.00;99.90;;;;;;4997306;28;20033;-84
2021/04/15 04:01:17;;;;;;;14.30;7.77;;;0.90;99.90;;;;;;4997279;28;20030;-85
2021/04/15 04:03:46;;;;;;;13.10;7.03;;;0.90;99.90;;;;;;5014304;28;20531;-86
2021/04/15 04:06:25;;;;;;;14.03;7.83;;;0.90;99.90;;;;;;4997208;28;20135;-85
2021/04/15 04:08:57;;;;;;;14.43;8.13;;;0.90;99.90;;;;;;4997193;28;20498;-84
2021/04/15 04:11:28;;;;;;;13.67;7.93;;;0.80;99.90;;;;;;5015158;28;20030;-85
2021/04/15 04:13:59;;;;;;;12.77;7.70;;;0.80;99.90;;;;;;5014375;28;20257;-85
2021/04/15 04:16:27;;;;;;;13.43;8.17;;;0.80;99.90;;;;;;4996676;28;20022;-84
2021/04/15 04:19:35;;;;;;;16.10;9.43;;;0.90;99.90;;;;;;4996769;28;20025;-85
2021/04/15 04:22:29;;;;;;;13.93;7.70;;;0.90;99.90;;;;;;4997579;28;20030;-85
2021/04/15 04:25:08;;;;;;;14.60;7.87;;;0.90;99.90;;;;;;4995423;28;20052;-84
2021/04/15 04:27:41;;;;;;;13.07;7.93;;;0.90;99.90;;;;;;4992612;28;20065;-85
2021/04/15 04:30:25;;;;;;;15.00;8.23;;;0.90;99.90;;;;;;4977206;28;20034;-85
2021/04/15 04:32:55;;;;;;;13.70;8.27;;;0.90;99.90;;;;;;4999506;28;20091;-85
2021/04/15 04:35:26;;;;;;;13.70;8.00;;;0.90;99.90;;;;;;4997539;28;20030;-84
2021/04/15 04:37:53;;;;;;;12.80;7.83;;;0.90;99.90;;;;;;4997048;28;20041;-85
2021/04/15 04:40:24;;;;;;;13.03;8.27;;;0.90;99.90;;;;;;5013205;28;20037;-84
2021/04/15 04:43:15;;;;;;;12.77;8.10;;;0.90;99.90;;;;;;4997416;28;20040;-85
2021/04/15 04:45:41;;;;;;;12.50;7.60;;;0.90;99.90;;;;;;4998698;28;20037;-86
2021/04/15 04:48:23;;;;;;;13.93;8.40;;;0.90;99.90;;;;;;4998756;28;20026;-85
2021/04/15 04:51:13;;;;;;;16.85;8.30;;;0.90;99.90;;;;;;4998692;28;20513;-84
2021/04/15 04:53:41;;;;;;;17.30;8.23;;;0.90;99.90;;;;;;4998111;28;20030;-85
2021/04/15 04:56:22;;;;;;;16.27;7.93;;;0.90;99.90;;;;;;4998452;28;20022;-84
2021/04/15 04:59:13;;;;;;;12.50;7.17;;;0.90;99.90;;;;;;4998617;28;20487;-85
2021/04/15 05:01:40;;;;;;;12.93;7.37;;;0.90;99.90;;;;;;5016295;28;20026;-84
2021/04/15 05:04:06;;;;;;;13.90;7.17;;;0.80;99.90;;;;;;5016182;28;20550;-85
2021/04/15 05:06:34;;;;;;;17.60;7.33;;;0.80;99.90;;;;;;5014825;28;20061;-85
2021/04/15 05:09:20;;;;;;;14.77;7.77;;;0.80;99.90;;;;;;5016369;28;20030;-85
2021/04/15 05:11:48;;;;;;;13.00;7.20;;;0.90;99.90;;;;;;4998440;28;20402;-85
2021/04/15 05:14:26;;;;;;;10.43;6.27;;;0.90;99.90;;;;;;4999173;28;20030;-85
2021/04/15 05:17:05;;;;;;;11.43;5.93;;;0.90;99.90;;;;;;4999874;28;20390;-85
2021/04/15 05:19:33;;;;;;;10.33;6.37;;;0.90;99.90;;;;;;4999254;28;20022;-84
2021/04/15 05:22:00;;;;;;;9.47;6.00;;;0.90;99.90;;;;;;5017083;28;20471;-85
2021/04/15 05:24:41;;;;;;;12.57;6.43;;;0.90;99.90;;;;;;5016997;28;20117;-85
2021/04/15 05:27:08;;;;;;;10.77;6.80;;;0.80;99.90;;;;;;5016780;28;20082;-85
2021/04/15 05:29:40;;;;;;;11.30;6.30;;;0.80;99.90;;;;;;4998926;28;20026;-85
2021/04/15 05:32:06;;;;;;;12.37;5.83;;;0.90;99.90;;;;;;5016303;28;20065;-85
2021/04/15 05:34:39;;;;;;;11.10;5.87;;;0.90;99.90;;;;;;4999075;28;20033;-86
2021/04/15 05:37:08;;;;;;;10.03;5.57;;;1.00;99.90;;;;;;5017192;28;20376;-85
2021/04/15 05:39:36;;;;;;;8.93;5.37;;;1.00;99.90;;;;;;4998827;28;20479;-85
2021/04/15 05:42:07;;;;;;;11.00;5.17;;;1.10;99.90;;;;;;4999050;28;20531;-85
2021/04/15 05:44:41;;;;;;;10.15;5.75;;;1.20;99.90;;;;;;4999356;28;20628;-84
2021/04/15 05:47:25;;;;;;;9.43;5.23;;;1.30;99.90;;;;;;4998904;28;20036;-85
2021/04/15 05:50:14;;;;;;;11.03;4.97;;;1.40;99.90;;;;;;4998119;28;20510;-85
2021/04/15 05:52:58;;;;;;;10.70;4.90;;;1.50;99.90;;;;;;5014416;28;20068;-85
2021/04/15 05:55:38;;;;;;;11.40;5.50;;;1.60;99.90;;;;;;5006251;28;20041;-85
2021/04/15 05:58:12;;;;;;;7.60;4.37;;;1.70;99.90;;;;;;5014145;28;20021;-83
2021/04/15 06:01:10;;;;;;;9.13;4.70;;;1.80;99.90;;;;;;5013797;28;20129;-85
2021/04/15 06:04:22;;;;;;;7.47;4.10;;;1.80;99.90;;;;;;4971170;28;20088;-85
2021/04/15 06:06:48;;;;;;;7.03;4.40;;;1.80;99.90;;;;;;4982426;28;20077;-85
2021/04/15 06:09:15;;;;;;;11.90;4.60;;;1.80;99.90;;;;;;4996142;28;20296;-85
2021/04/15 06:12:03;;;;;;;11.17;4.87;;;1.80;99.90;;;;;;4997197;28;20574;-86
2021/04/15 06:14:44;;;;;;;10.83;4.70;;;1.90;99.90;;;;;;4997076;28;20032;-84
2021/04/15 06:17:28;;;;;;;9.23;4.90;;;2.00;99.90;;;;;;4994849;28;20032;-84
2021/04/15 06:20:09;;;;;;;11.87;4.53;;;2.10;99.90;;;;;;5007631;28;20082;-86
2021/04/15 06:22:43;;;;;;;10.13;4.93;;;2.10;99.90;;;;;;5014045;28;20048;-85
2021/04/15 06:25:25;;;;;;;8.47;4.67;;;2.30;99.90;;;;;;5003748;28;20061;-85
2021/04/15 06:27:51;;;;;;;11.30;4.47;;;2.40;99.90;;;;;;5011514;28;20057;-85
2021/04/15 06:30:22;;;;;;;8.67;3.90;;;2.50;99.90;;;;;;5008625;28;20050;-86
2021/04/15 06:32:54;;;;;;;9.23;3.60;;;2.60;99.90;;;;;;4994283;28;20026;-85
2021/04/15 06:35:29;;;;;;;7.70;3.50;;;2.70;99.90;;;;;;5011806;28;20030;-84
2021/04/15 06:38:18;;;;;;;7.27;3.10;;;2.90;99.90;;;;;;4998382;28;20022;-88
2021/04/15 06:41:11;;;;;;;8.50;3.00;;;2.90;99.90;;;;;;5011110;28;20026;-85
2021/04/15 06:44:08;;;;;;;9.80;3.47;;;3.00;99.90;;;;;;5009881;28;20026;-86
2021/04/15 06:46:56;;;;;;;9.83;3.87;;;3.10;99.90;;;;;;5016374;23;20046;-86
2021/04/15 06:49:28;;;;;;;7.50;3.70;;;3.20;99.90;;;;;;4977414;28;20062;-85
2021/04/15 06:52:21;;;;;;;8.18;3.63;;;3.40;99.90;;;;;;4980271;28;20042;-85
2021/04/15 06:55:08;;;;;;;9.63;3.73;;;3.40;99.90;;;;;;4974014;28;20391;-84
2021/04/15 06:57:44;;;;;;;8.00;3.37;;;3.60;99.90;;;;;;4991129;28;20015;-85
2021/04/15 07:00:37;;;;;;;8.27;3.50;;;3.60;99.90;;;;;;4974084;28;20034;-85
2021/04/15 07:03:17;;;;;;;10.40;3.50;;;3.70;99.90;;;;;;4993968;28;20026;-86
2021/04/15 07:06:05;;;;;;;7.17;3.40;;;3.80;99.90;;;;;;4990414;28;20038;-85
2021/04/15 07:08:39;;;;;;;6.50;3.57;;;3.80;99.90;;;;;;4972736;28;20459;-87
2021/04/15 07:11:10;;;;;;;6.57;2.93;;;3.80;99.90;;;;;;4987289;28;20055;-85
2021/04/15 07:13:51;;;;;;;8.13;3.50;;;3.80;99.90;;;;;;4993194;28;20034;-85
2021/04/15 07:16:39;;;;;;;6.43;3.10;;;4.10;99.90;;;;;;4979342;28;20033;-85
2021/04/15 07:19:54;;;;;;;7.93;3.73;;;4.10;99.90;;;;;;4976314;28;20026;-86
2021/04/15 07:22:46;;;;;;;8.37;3.30;;;4.10;99.90;;;;;;4972393;28;20403;-85
2021/04/15 07:25:30;;;;;;;10.77;3.55;;;4.20;99.90;;;;;;5000302;28;20053;-86
2021/04/15 07:28:09;;;;;;;9.20;3.27;;;4.20;99.90;;;;;;4993365;28;20042;-85
2021/04/15 07:31:06;;;;;;;7.60;3.90;;;4.40;99.90;;;;;;4975742;28;20031;-86
2021/04/15 07:33:41;;;;;;;8.43;3.60;;;4.50;99.90;;;;;;4977226;28;20026;-85
2021/04/15 07:36:41;;;;;;;6.87;3.70;;;4.90;99.90;;;;;;4976080;28;20023;-86
2021/04/15 07:39:12;;;;;;;7.73;3.60;;;4.90;99.90;;;;;;4978078;28;20042;-85
2021/04/15 07:42:03;;;;;;;7.82;3.83;;;5.00;99.90;;;;;;4994530;28;20054;-86
2021/04/15 07:44:40;;;;;;;10.90;4.27;;;5.10;99.90;;;;;;4985738;28;20034;-85
2021/04/15 07:47:25;;;;;;;8.53;4.43;;;5.10;99.90;;;;;;4991551;28;20043;-85
2021/04/15 07:50:09;;;;;;;12.23;3.70;;;5.20;99.90;;;;;;4972865;28;20077;-85
2021/04/15 07:52:41;;;;;;;7.90;4.13;;;5.40;99.90;;;;;;4974203;28;20531;-85
2021/04/15 07:55:27;;;;;;;11.82;3.90;;;5.60;99.90;;;;;;4976894;28;20069;-86
2021/04/15 07:58:20;;;;;;;9.07;3.90;;;5.70;99.90;;;;;;4969752;28;20031;-85
2021/04/15 08:01:01;;;;;;;;;;;5.60;99.90;;;;;;4966878;28;20463;-86
2021/04/15 08:03:57;;;;;;;9.03;3.57;;;5.80;99.90;;;;;;4971506;28;19912;-86
2021/04/15 08:06:32;;;;;;;8.10;3.80;;;5.80;99.80;;;;;;4983908;28;20080;-85
2021/04/15 08:09:27;;;;;;;7.97;3.73;;;5.80;99.90;;;;;;4983033;28;20030;-86
2021/04/15 08:12:02;;;;;;;8.10;3.40;;;5.90;99.90;;;;;;4987092;28;20030;-85
2021/04/15 08:15:10;;;;;;;7.67;3.93;;;5.90;98.30;;;;;;4992788;28;20097;-84
2021/04/15 08:17:49;;;;;;;7.13;3.60;;;5.90;98.30;;;;;;4975730;28;20027;-85
2021/04/15 08:21:00;;;;;;;8.70;4.10;;;5.90;97.90;;;;;;4990815;28;20058;-85
2021/04/15 08:23:34;;;;;;;9.00;4.07;;;6.10;98.80;;;;;;4968059;28;20094;-85
2021/04/15 08:26:00;;;;;;;9.73;3.90;;;6.20;98.00;;;;;;4987788;28;20035;-86
2021/04/15 08:28:54;;;;;;;9.17;4.30;;;6.20;98.30;;;;;;4963564;28;20038;-86
2021/04/15 08:31:27;;;;;;;9.10;3.97;;;6.30;97.40;;;;;;4985854;28;20034;-86
2021/04/15 08:34:08;;;;;;;6.27;3.90;;;6.30;96.20;;;;;;4986238;28;20023;-85
2021/04/15 08:37:16;;;;;;;8.75;4.18;;;6.30;97.00;;;;;;4966939;28;20025;-87
2021/04/15 08:40:19;;;;;;;6.80;3.57;;;6.40;97.10;;;;;;4967820;28;20022;-86
2021/04/15 08:42:51;;;;;;;;;;;6.50;96.50;;;;;;4969688;28;20033;-85
2021/04/15 08:45:35;;;;;;;10.18;3.45;;;6.60;96.40;;;;;;4970407;28;19906;-89
2021/04/15 08:48:24;;;;;;;7.93;3.97;;;6.60;93.90;;;;;;4983835;28;20038;-86
2021/04/15 08:51:19;;;;;;;7.07;3.17;;;6.90;94.60;;;;;;4966782;28;20113;-86
2021/04/15 08:53:53;;;;;;;7.20;3.40;;;6.90;93.80;;;;;;4964264;28;20031;-86
2021/04/15 08:56:31;;;;;;;7.43;3.40;;;6.90;93.20;;;;;;4979487;28;20540;-86
2021/04/15 08:59:41;;;;;;;5.90;3.30;;;6.90;93.60;;;;;;4966502;28;20026;-85
2021/04/15 09:02:26;;;;;;;7.13;2.80;;;7.00;91.40;;;;;;4961624;28;20035;-87
2021/04/15 09:05:02;;;;;;;9.67;3.70;;;7.20;91.40;;;;;;4971907;28;20028;-85
2021/04/15 09:07:39;;;;;;;8.77;3.47;;;7.30;92.00;;;;;;4973067;28;20030;-85
2021/04/15 09:10:27;;;;;;;9.83;3.17;;;7.40;90.90;;;;;;4987626;28;20026;-86
2021/04/15 09:13:16;;;;;;;5.37;3.27;;;7.60;91.30;;;;;;4968942;28;20034;-85
2021/04/15 09:15:57;;;;;;;5.47;3.00;;;7.90;90.90;;;;;;4975595;28;20031;-85
2021/04/15 09:18:47;;;;;;;6.40;2.85;;;8.00;89.20;;;;;;4990508;28;20457;-86
2021/04/15 09:21:22;;;;;;;7.13;3.00;;;7.90;87.60;;;;;;4971416;28;20035;-86
2021/04/15 09:23:59;;;;;;;6.68;2.85;;;7.90;86.10;;;;;;4989443;28;20065;-85
2021/04/15 09:26:49;;;;;;;8.03;3.33;;;8.00;86.50;;;;;;4987112;28;20172;-85
2021/04/15 09:29:20;;;;;;;5.23;2.63;;;7.50;85.60;;;;;;4990307;28;20109;-85
2021/04/15 09:32:06;;;;;;;6.87;3.07;;;7.40;87.80;;;;;;4993425;28;20023;-86
2021/04/15 09:34:49;;;;;;;5.95;3.03;;;7.60;89.60;;;;;;4987600;28;20070;-85
2021/04/15 09:37:43;;;;;;;6.30;2.73;;;7.90;85.30;;;;;;4972263;28;20019;-85
2021/04/15 09:40:47;;;;;;;7.17;2.77;;;7.70;82.40;;;;;;4986982;28;20117;-85
2021/04/15 09:43:20;;;;;;;7.77;3.57;;;7.60;81.10;;;;;;4960203;28;20468;-87
2021/04/15 09:45:57;;;;;;;6.80;2.70;;;7.60;82.90;;;;;;4988821;28;20050;-85
2021/04/15 09:48:47;;;;;;;7.17;2.87;;;7.70;82.20;;;;;;4989954;28;20401;-85
2021/04/15 09:51:51;;;;;;;6.90;2.43;;;7.80;80.30;;;;;;4987329;28;20391;-85
2021/04/15 09:54:58;;;;;;;7.23;2.70;;;8.00;82.00;;;;;;4972215;28;20019;-84
2021/04/15 09:57:51;;;;;;;8.35;2.83;;;8.10;77.00;;;;;;4987838;28;20023;-86
2021/04/15 10:00:25;;;;;;;5.77;2.57;;;8.20;75.40;;;;;;4975627;28;20082;-87
2021/04/15 10:03:00;;;;;;;7.10;2.20;;;8.40;74.10;;;;;;4988194;28;20098;-86
2021/04/15 10:06:18;;;;;;;8.90;2.67;;;8.50;74.30;;;;;;4979304;28;20046;-86
2021/04/15 10:08:56;;;;;;;6.23;2.30;;;8.70;74.10;;;;;;4946149;28;20038;-86
2021/04/15 10:11:43;;;;;;;5.78;1.98;;;8.70;73.90;;;;;;4984687;28;20034;-86
2021/04/15 10:14:37;;;;;;;4.45;1.80;;;9.20;70.20;;;;;;4982261;28;20126;-86
2021/04/15 10:17:21;;;;;;;7.05;1.77;;;8.90;70.00;;;;;;4968236;28;20057;-86
2021/04/15 10:19:50;;;;;;;4.82;1.83;;;8.70;68.90;;;;;;4968425;28;20395;-86
2021/04/15 10:22:29;;;;;;;2.65;1.48;;;8.40;68.90;;;;;;4971736;28;20046;-86
2021/04/15 10:25:07;;;;;;;5.22;2.17;;;8.20;68.10;;;;;;4978215;28;20035;-86
2021/04/15 10:28:07;;;;;;;6.70;2.25;;;8.10;70.30;;;;;;4973307;28;20026;-86
2021/04/15 10:31:15;;;;;;;5.60;2.13;;;8.10;71.20;;;;;;4965232;28;20484;-86
2021/04/15 10:34:08;;;;;;;4.00;1.30;;;8.10;73.80;;;;;;4913408;29;20621;-85
2021/04/15 10:37:09;;;;;;;5.95;2.35;;;7.80;69.00;;;;;;4964193;28;20149;-86
2021/04/15 10:39:47;;;;;;;8.83;2.67;;;7.80;75.00;;;;;;4971344;28;20046;-86
2021/04/15 10:42:43;;;;;;;7.57;2.93;;;7.80;77.20;;;;;;4967651;28;20073;-86
2021/04/15 10:45:09;;;;;;;7.28;2.50;;;7.50;79.00;;;;;;4984627;28;20019;-85
2021/04/15 10:48:03;;;;;;;6.43;2.30;;;7.50;78.60;;;;;;4989055;28;20044;-86
2021/04/15 10:50:56;;;;;;;5.23;2.40;;;7.40;80.20;;;;;;4987099;28;20039;-86
2021/04/15 10:53:48;;;;;;;4.90;2.27;;;7.30;83.20;;;;;;4991988;28;20019;-86
2021/04/15 10:56:27;;;;;;;;;;;7.20;82.70;;;;;;4990323;28;20034;-86
2021/04/15 10:58:59;;;;;;;5.77;2.67;;;7.30;82.60;;;;;;4985573;28;19977;-87
2021/04/15 11:01:36;;;;;;;9.50;3.07;;;7.60;82.80;;;;;;4989569;28;20035;-86
2021/04/15 11:04:24;;;;;;;6.50;2.77;;;7.70;83.60;;;;;;4976358;28;20031;-86
2021/04/15 11:06:56;;;;;;;4.53;2.53;;;8.20;77.90;;;;;;4971977;28;20037;-87
2021/04/15 11:09:27;;;;;;;7.85;2.75;;;8.90;75.80;;;;;;4972648;28;20038;-87
2021/04/15 11:12:16;;;;;;;4.93;2.60;;;9.20;72.70;;;;;;4973955;28;20035;-87
2021/04/15 11:14:46;;;;;;;7.50;2.93;;;9.30;72.90;;;;;;4974217;28;20038;-86
2021/04/15 11:17:26;;;;;;;4.90;2.20;;;9.10;71.60;;;;;;4989901;28;20034;-86
2021/04/15 11:20:35;;;;;;;5.95;2.60;;;8.60;70.90;;;;;;4990677;28;20027;-87
2021/04/15 11:26:41;;;;;;;7.40;2.53;;;8.20;75.80;;;;;;4977417;28;20074;-86
2021/04/15 11:29:22;;;;;;;6.17;2.97;;;8.00;77.60;;;;;;4983479;28;20034;-86
2021/04/15 11:31:48;;;;;;;7.97;2.70;;;7.80;77.70;;;;;;4970909;28;20070;-86
2021/04/15 11:34:24;;;;;;;5.87;2.27;;;7.60;78.60;;;;;;4968600;28;20031;-86
2021/04/15 11:37:01;;;;;;;5.20;2.17;;;7.40;79.90;;;;;;4972173;28;20370;-86
2021/04/15 11:39:31;;;;;;;5.67;2.60;;;7.50;78.30;;;;;;4963945;28;20029;-86
2021/04/15 11:42:05;;;;;;;5.60;2.53;;;8.10;77.10;;;;;;4986987;28;20105;-86
2021/04/15 11:44:52;;;;;;;6.03;2.13;;;8.80;76.10;;;;;;4970605;28;20027;-86
2021/04/15 11:47:30;;;;;;;4.78;2.05;;;9.50;71.70;;;;;;4982543;28;20563;-87
2021/04/15 11:50:29;;;;;;;5.45;2.17;;;9.60;70.40;;;;;;4982723;28;20078;-86
2021/04/15 11:52:59;;;;;;;4.75;1.90;;;9.20;71.90;;;;;;4963854;28;20066;-86
2021/04/15 11:55:30;;;;;;;5.20;2.03;;;8.80;70.40;;;;;;4963398;28;20030;-87
2021/04/15 11:58:09;;;;;;;4.83;2.20;;;8.90;71.10;;;;;;4985955;28;20169;-86
2021/04/15 12:00:38;;;;;;;3.53;1.85;;;9.00;71.20;;;;;;4979997;28;20373;-87
2021/04/15 12:03:20;;;;;;;7.00;2.28;;;9.40;69.30;;;;;;4982364;28;20030;-87
2021/04/15 12:05:48;;;;;;;3.35;1.98;;;9.40;67.90;;;;;;4966899;28;20121;-86
2021/04/15 12:08:28;;;;;;;4.30;1.77;;;9.40;67.60;;;;;;4987119;28;20113;-87
2021/04/15 12:11:26;;;;;;;4.50;1.73;;;9.70;65.10;;;;;;4978109;28;20055;-86
2021/04/15 12:17:54;;;;;;;5.07;1.90;;;10.30;63.10;;;;;;4955084;28;20023;-88
2021/04/15 12:20:47;;;;;;;5.90;2.00;;;10.70;61.20;;;;;;4968956;28;20493;-87
2021/04/15 12:23:51;;;;;;;7.85;2.20;;;10.90;64.00;;;;;;4974996;28;20035;-91
2021/04/15 12:26:50;;;;;;;4.30;2.20;;;11.20;62.10;;;;;;4970426;28;20088;-86
2021/04/15 12:29:28;;;;;;;5.68;2.28;;;11.40;61.00;;;;;;4966908;28;20031;-86
2021/04/15 12:31:59;;;;;;;3.47;1.85;;;11.70;61.20;;;;;;4986726;28;20134;-87
2021/04/15 12:34:33;;;;;;;4.60;1.33;;;11.90;60.80;;;;;;4965715;28;20051;-87
2021/04/15 12:37:20;;;;;;;4.60;2.00;;;12.30;59.40;;;;;;4969647;28;20081;-86
2021/04/15 12:39:53;;;;;;;5.43;2.17;;;11.60;59.30;;;;;;4982111;28;20042;-87
2021/04/15 12:42:26;;;;;;;4.40;1.75;;;11.30;61.70;;;;;;4969162;28;20031;-87
2021/04/15 12:44:56;;;;;;;7.72;2.20;;;10.60;64.00;;;;;;4970211;28;20030;-86
2021/04/15 12:47:22;;;;;;;3.50;1.67;;;10.30;64.80;;;;;;4969353;28;20383;-87
2021/04/15 12:49:48;;;;;;;4.60;1.80;;;10.10;64.10;;;;;;4984413;28;20031;-86
2021/04/15 12:52:14;;;;;;;4.05;1.70;;;10.20;64.60;;;;;;4978679;28;20086;-86
2021/04/15 12:54:43;;;;;;;4.82;1.90;;;9.90;64.50;;;;;;4977988;28;20190;-87
2021/04/15 12:57:11;;;;;;;5.55;2.15;;;9.70;65.30;;;;;;4967097;28;20062;-86
2021/04/15 12:59:38;;;;;;;3.83;1.65;;;9.90;64.20;;;;;;4981953;28;20066;-86
2021/04/15 13:02:20;;;;;;;4.90;1.60;;;10.40;63.00;;;;;;4964522;28;20140;-86
2021/04/15 13:04:51;;;;;;;3.13;1.70;;;10.80;60.40;;;;;;4982294;28;20499;-86
2021/04/15 13:07:33;;;;;;;1.63;0.82;;;11.20;58.00;;;;;;4972232;28;20081;-86
2021/04/15 13:10:30;;;;;;;4.35;1.63;;;11.60;58.30;;;;;;4971760;28;20065;-86
2021/04/15 13:12:57;;;;;;;3.63;1.40;;;12.50;56.60;;;;;;4966567;28;20052;-85
2021/04/15 13:15:23;;;;;;;3.60;1.38;;;12.70;52.40;;;;;;4973977;28;20033;-86
2021/04/15 13:17:56;;;;;;;3.03;1.10;;;12.90;51.80;;;;;;4993262;28;20031;-86
2021/04/15 13:20:24;;;;;;;3.38;1.30;;;13.20;50.20;;;;;;4972602;28;20033;-86
2021/04/15 13:23:12;;;;;;;3.75;1.30;;;12.90;48.30;;;;;;4989171;28;20030;-86
2021/04/15 13:25:50;;;;;;;3.30;1.90;;;12.70;48.50;;;;;;4964148;28;20031;-86
2021/04/15 13:28:18;;;;;;;2.47;1.30;;;12.90;50.00;;;;;;4973022;28;20038;-88
2021/04/15 13:30:43;;;;;;;2.55;1.50;;;13.20;50.40;;;;;;4978389;28;20023;-89
2021/04/15 13:33:16;;;;;;;3.92;1.90;;;13.40;51.80;;;;;;4974697;28;20134;-87
2021/04/15 13:35:53;;;;;;;3.95;1.77;;;13.30;52.10;;;;;;4973423;28;20500;-86
2021/04/15 13:38:46;;;;;;;5.82;2.20;;;13.30;52.90;;;;;;4973399;28;20097;-87
2021/04/15 13:44:03;;;;;;;4.55;1.90;;;12.80;54.40;;;;;;4974636;28;20096;-87
2021/04/15 13:46:45;;;;;;;5.35;2.20;;;13.10;53.30;;;;;;4976093;28;20046;-87
2021/04/15 13:49:12;;;;;;;3.92;1.50;;;13.20;53.80;;;;;;4969140;28;20129;-87
2021/04/15 13:51:41;;;;;;;4.03;1.50;;;13.30;52.90;;;;;;4968428;28;20042;-87
2021/04/15 13:54:17;;;;;;;4.00;1.63;;;13.30;51.50;;;;;;4982361;28;20114;-86
2021/04/15 13:56:58;;;;;;;3.72;1.45;;;13.30;49.50;;;;;;4979692;28;20515;-87
2021/04/15 14:02:04;;;;;;;3.70;1.60;;;13.20;50.40;;;;;;4985498;28;20073;-87
2021/04/15 14:04:42;;;;;;;2.90;1.63;;;13.30;49.40;;;;;;4987814;28;20043;-86